sensor_id;sensor_type;location;lat;lon;timestamp;temperature;humidity
49327;DHT22;35819;44.498;0.166;2022-10-15T00:00:36;17.20;99.90
49327;DHT22;35819;44.498;0.166;2022-10-15T00:03:02;17.20;99.90
49327;DHT22;35819;44.498;0.166;2022-10-15T00:05:28;17.20;99.90
49327;DHT22;35819;44.498;0.166;2022-10-15T00:07:54;17.20;99.90
49327;DHT22;35819;44.498;0.166;2022-10-15T00:10:20;17.20;99.90
49327;DHT22;35819;44.498;0.166;2022-10-15T00:12:46;17.20;99.90
49327;DHT22;35819;44.498;0.166;2022-10-15T00:15:12;17.20;99.90
49327;DHT22;35819;44.498;0.166;2022-10-15T00:17:38;17.20;99.90
49327;DHT22;35819;44.498;0.166;2022-10-15T00:20:07;17.20;99.90
49327;DHT22;35819;44.498;0.166;2022-10-15T00:22:33;17.20;99.90
49327;DHT22;35819;44.498;0.166;2022-10-15T00:25:00;17.20;99.90
49327;DHT22;35819;44.498;0.166;2022-10-15T00:27:25;17.20;99.90
49327;DHT22;35819;44.498;0.166;2022-10-15T00:29:51;17.20;99.90
49327;DHT22;35819;44.498;0.166;2022-10-15T00:32:17;17.20;99.90
49327;DHT22;35819;44.498;0.166;2022-10-15T00:34:43;17.20;99.90
49327;DHT22;35819;44.498;0.166;2022-10-15T00:37:08;17.10;99.90
49327;DHT22;35819;44.498;0.166;2022-10-15T00:39:35;17.00;99.90
49327;DHT22;35819;44.498;0.166;2022-10-15T00:42:01;17.00;99.90
49327;DHT22;35819;44.498;0.166;2022-10-15T00:47:08;16.70;99.90
49327;DHT22;35819;44.498;0.166;2022-10-15T00:49:37;16.70;99.90
49327;DHT22;35819;44.498;0.166;2022-10-15T00:52:15;16.60;99.90
49327;DHT22;35819;44.498;0.166;2022-10-15T00:54:48;16.50;99.90
49327;DHT22;35819;44.498;0.166;2022-10-15T00:57:15;16.50;99.90
49327;DHT22;35819;44.498;0.166;2022-10-15T00:59:45;16.50;99.90
49327;DHT22;35819;44.498;0.166;2022-10-15T01:02:12;16.40;99.90
49327;DHT22;35819;44.498;0.166;2022-10-15T01:04:38;16.40;99.90
49327;DHT22;35819;44.498;0.166;2022-10-15T01:07:05;16.40;99.90
49327;DHT22;35819;44.498;0.166;2022-10-15T01:09:32;16.30;99.90
49327;DHT22;35819;44.498;0.166;2022-10-15T01:11:59;16.40;99.90
49327;DHT22;35819;44.498;0.166;2022-10-15T01:17:44;16.40;99.90
49327;DHT22;35819;44.498;0.166;2022-10-15T01:23:58;16.50;99.90
49327;DHT22;35819;44.498;0.166;2022-10-15T01:29:14;16.60;99.90
49327;DHT22;35819;44.498;0.166;2022-10-15T01:31:51;16.60;99.90
49327;DHT22;35819;44.498;0.166;2022-10-15T01:34:48;16.60;99.90
49327;DHT22;35819;44.498;0.166;2022-10-15T01:40:08;16.60;99.90
49327;DHT22;35819;44.498;0.166;2022-10-15T01:42:49;16.60;99.90
49327;DHT22;35819;44.498;0.166;2022-10-15T01:45:20;16.60;99.90
49327;DHT22;35819;44.498;0.166;2022-10-15T01:47:57;16.60;99.90
49327;DHT22;35819;44.498;0.166;2022-10-15T01:50:26;16.70;99.90
49327;DHT22;35819;44.498;0.166;2022-10-15T01:52:54;16.60;99.90
49327;DHT22;35819;44.498;0.166;2022-10-15T01:55:22;16.60;99.90
49327;DHT22;35819;44.498;0.166;2022-10-15T01:57:48;16.60;99.90
49327;DHT22;35819;44.498;0.166;2022-10-15T02:00:15;16.60;99.90
49327;DHT22;35819;44.498;0.166;2022-10-15T02:02:43;16.60;99.90
49327;DHT22;35819;44.498;0.166;2022-10-15T02:05:16;16.60;99.90
49327;DHT22;35819;44.498;0.166;2022-10-15T02:13:13;16.70;99.90
49327;DHT22;35819;44.498;0.166;2022-10-15T02:21:30;16.80;99.90
49327;DHT22;35819;44.498;0.166;2022-10-15T02:24:22;16.80;99.90
49327;DHT22;35819;44.498;0.166;2022-10-15T02:26:52;16.80;99.90
49327;DHT22;35819;44.498;0.166;2022-10-15T02:29:22;16.90;99.90
49327;DHT22;35819;44.498;0.166;2022-10-15T02:31:49;16.90;99.90
49327;DHT22;35819;44.498;0.166;2022-10-15T02:34:20;16.90;99.90
49327;DHT22;35819;44.498;0.166;2022-10-15T02:36:48;16.90;99.90
49327;DHT22;35819;44.498;0.166;2022-10-15T02:39:19;16.90;99.90
49327;DHT22;35819;44.498;0.166;2022-10-15T02:41:47;17.00;99.90
49327;DHT22;35819;44.498;0.166;2022-10-15T02:44:13;17.00;99.90
49327;DHT22;35819;44.498;0.166;2022-10-15T02:46:39;17.00;99.90
49327;DHT22;35819;44.498;0.166;2022-10-15T02:49:05;17.00;99.90
49327;DHT22;35819;44.498;0.166;2022-10-15T02:51:33;17.00;99.90
49327;DHT22;35819;44.498;0.166;2022-10-15T02:54:00;17.00;99.90
49327;DHT22;35819;44.498;0.166;2022-10-15T02:56:27;17.00;99.90
49327;DHT22;35819;44.498;0.166;2022-10-15T02:58:53;17.00;99.90
49327;DHT22;35819;44.498;0.166;2022-10-15T03:01:19;17.00;99.90
49327;DHT22;35819;44.498;0.166;2022-10-15T03:03:44;17.00;99.90
49327;DHT22;35819;44.498;0.166;2022-10-15T03:06:13;17.00;99.90
49327;DHT22;35819;44.498;0.166;2022-10-15T03:08:39;17.00;99.90
49327;DHT22;35819;44.498;0.166;2022-10-15T03:11:07;17.00;99.90
49327;DHT22;35819;44.498;0.166;2022-10-15T03:13:37;17.00;99.90
49327;DHT22;35819;44.498;0.166;2022-10-15T03:16:08;17.10;99.90
49327;DHT22;35819;44.498;0.166;2022-10-15T03:18:34;17.10;99.90
49327;DHT22;35819;44.498;0.166;2022-10-15T03:21:00;17.10;99.90
49327;DHT22;35819;44.498;0.166;2022-10-15T03:23:26;17.10;99.90
49327;DHT22;35819;44.498;0.166;2022-10-15T03:25:52;17.10;99.90
49327;DHT22;35819;44.498;0.166;2022-10-15T03:28:19;17.10;99.90
49327;DHT22;35819;44.498;0.166;2022-10-15T03:30:45;17.10;99.90
49327;DHT22;35819;44.498;0.166;2022-10-15T03:33:11;17.10;99.90
49327;DHT22;35819;44.498;0.166;2022-10-15T03:35:37;17.10;99.90
49327;DHT22;35819;44.498;0.166;2022-10-15T03:38:04;17.10;99.90
49327;DHT22;35819;44.498;0.166;2022-10-15T03:40:29;17.10;99.90
49327;DHT22;35819;44.498;0.166;2022-10-15T03:42:55;17.10;99.90
49327;DHT22;35819;44.498;0.166;2022-10-15T03:45:22;17.10;99.90
49327;DHT22;35819;44.498;0.166;2022-10-15T03:47:48;17.10;99.90
49327;DHT22;35819;44.498;0.166;2022-10-15T03:50:14;17.10;99.90
49327;DHT22;35819;44.498;0.166;2022-10-15T03:52:40;17.10;99.90
49327;DHT22;35819;44.498;0.166;2022-10-15T03:55:07;17.10;99.90
49327;DHT22;35819;44.498;0.166;2022-10-15T03:57:34;17.00;99.90
49327;DHT22;35819;44.498;0.166;2022-10-15T04:00:00;17.00;99.90
49327;DHT22;35819;44.498;0.166;2022-10-15T04:02:26;17.00;99.90
49327;DHT22;35819;44.498;0.166;2022-10-15T04:04:53;17.00;99.90
49327;DHT22;35819;44.498;0.166;2022-10-15T04:07:22;17.00;99.90
49327;DHT22;35819;44.498;0.166;2022-10-15T04:09:48;17.00;99.90
49327;DHT22;35819;44.498;0.166;2022-10-15T04:12:14;17.00;99.90
49327;DHT22;35819;44.498;0.166;2022-10-15T04:14:40;16.90;99.90
49327;DHT22;35819;44.498;0.166;2022-10-15T04:17:06;16.90;99.90
49327;DHT22;35819;44.498;0.166;2022-10-15T04:19:32;16.90;99.90
49327;DHT22;35819;44.498;0.166;2022-10-15T04:21:58;16.80;99.90
49327;DHT22;35819;44.498;0.166;2022-10-15T04:24:24;16.70;99.90
49327;DHT22;35819;44.498;0.166;2022-10-15T04:26:50;16.70;99.90
49327;DHT22;35819;44.498;0.166;2022-10-15T04:29:15;16.60;99.90
49327;DHT22;35819;44.498;0.166;2022-10-15T04:31:41;16.60;99.90
49327;DHT22;35819;44.498;0.166;2022-10-15T04:34:07;16.50;99.90
49327;DHT22;35819;44.498;0.166;2022-10-15T04:36:33;16.40;99.90
49327;DHT22;35819;44.498;0.166;2022-10-15T04:39:00;16.40;99.90
49327;DHT22;35819;44.498;0.166;2022-10-15T04:41:26;16.30;99.90
49327;DHT22;35819;44.498;0.166;2022-10-15T04:43:52;16.30;99.90
49327;DHT22;35819;44.498;0.166;2022-10-15T04:46:18;16.30;99.90
49327;DHT22;35819;44.498;0.166;2022-10-15T04:48:46;16.20;99.90
49327;DHT22;35819;44.498;0.166;2022-10-15T04:51:14;16.10;99.90
49327;DHT22;35819;44.498;0.166;2022-10-15T04:53:40;16.00;99.90
49327;DHT22;35819;44.498;0.166;2022-10-15T04:56:11;16.00;99.90
49327;DHT22;35819;44.498;0.166;2022-10-15T04:58:40;15.90;99.90
49327;DHT22;35819;44.498;0.166;2022-10-15T05:01:08;15.90;99.90
49327;DHT22;35819;44.498;0.166;2022-10-15T05:03:36;15.80;99.90
49327;DHT22;35819;44.498;0.166;2022-10-15T05:06:05;15.80;99.90
49327;DHT22;35819;44.498;0.166;2022-10-15T05:08:33;15.80;99.90
49327;DHT22;35819;44.498;0.166;2022-10-15T05:11:02;15.80;99.90
49327;DHT22;35819;44.498;0.166;2022-10-15T05:13:29;15.80;99.90
49327;DHT22;35819;44.498;0.166;2022-10-15T05:15:55;15.80;99.90
49327;DHT22;35819;44.498;0.166;2022-10-15T05:18:21;15.80;99.90
49327;DHT22;35819;44.498;0.166;2022-10-15T05:20:46;15.70;99.90
49327;DHT22;35819;44.498;0.166;2022-10-15T05:23:12;15.70;99.90
49327;DHT22;35819;44.498;0.166;2022-10-15T05:25:38;15.60;99.90
49327;DHT22;35819;44.498;0.166;2022-10-15T05:28:04;15.50;99.90
49327;DHT22;35819;44.498;0.166;2022-10-15T05:30:30;15.50;99.90
49327;DHT22;35819;44.498;0.166;2022-10-15T05:32:57;15.40;99.90
49327;DHT22;35819;44.498;0.166;2022-10-15T05:35:23;15.40;99.90
49327;DHT22;35819;44.498;0.166;2022-10-15T05:37:49;15.30;99.90
49327;DHT22;35819;44.498;0.166;2022-10-15T05:40:14;15.20;99.90
49327;DHT22;35819;44.498;0.166;2022-10-15T05:42:40;15.20;99.90
49327;DHT22;35819;44.498;0.166;2022-10-15T05:45:06;15.10;99.90
49327;DHT22;35819;44.498;0.166;2022-10-15T05:47:32;15.00;99.90
49327;DHT22;35819;44.498;0.166;2022-10-15T05:49:58;15.00;99.90
49327;DHT22;35819;44.498;0.166;2022-10-15T05:52:24;15.00;99.90
49327;DHT22;35819;44.498;0.166;2022-10-15T05:54:49;14.90;99.90
49327;DHT22;35819;44.498;0.166;2022-10-15T05:57:15;14.90;99.90
49327;DHT22;35819;44.498;0.166;2022-10-15T05:59:41;14.90;99.90
49327;DHT22;35819;44.498;0.166;2022-10-15T06:02:08;14.80;99.90
49327;DHT22;35819;44.498;0.166;2022-10-15T06:04:38;14.80;99.90
49327;DHT22;35819;44.498;0.166;2022-10-15T06:07:03;14.80;99.90
49327;DHT22;35819;44.498;0.166;2022-10-15T06:09:29;14.70;99.90
49327;DHT22;35819;44.498;0.166;2022-10-15T06:11:58;14.70;99.90
49327;DHT22;35819;44.498;0.166;2022-10-15T06:14:23;14.70;99.90
49327;DHT22;35819;44.498;0.166;2022-10-15T06:16:49;14.60;99.90
49327;DHT22;35819;44.498;0.166;2022-10-15T06:19:15;14.60;99.90
49327;DHT22;35819;44.498;0.166;2022-10-15T06:21:41;14.60;99.90
49327;DHT22;35819;44.498;0.166;2022-10-15T06:24:07;14.60;99.90
49327;DHT22;35819;44.498;0.166;2022-10-15T06:26:32;14.60;99.90
49327;DHT22;35819;44.498;0.166;2022-10-15T06:28:58;14.50;99.90
49327;DHT22;35819;44.498;0.166;2022-10-15T06:31:24;14.50;99.90
49327;DHT22;35819;44.498;0.166;2022-10-15T06:33:50;14.50;99.90
49327;DHT22;35819;44.498;0.166;2022-10-15T06:36:15;14.50;99.90
49327;DHT22;35819;44.498;0.166;2022-10-15T06:38:42;14.50;99.90
49327;DHT22;35819;44.498;0.166;2022-10-15T06:41:10;14.50;99.90
49327;DHT22;35819;44.498;0.166;2022-10-15T06:43:36;14.50;99.90
49327;DHT22;35819;44.498;0.166;2022-10-15T06:46:04;14.50;99.90
49327;DHT22;35819;44.498;0.166;2022-10-15T06:48:30;14.50;99.90
49327;DHT22;35819;44.498;0.166;2022-10-15T06:50:59;14.60;99.90
49327;DHT22;35819;44.498;0.166;2022-10-15T06:53:25;14.60;99.90
49327;DHT22;35819;44.498;0.166;2022-10-15T06:55:54;14.70;99.90
49327;DHT22;35819;44.498;0.166;2022-10-15T06:58:20;14.70;99.90
49327;DHT22;35819;44.498;0.166;2022-10-15T07:00:46;14.80;99.90
49327;DHT22;35819;44.498;0.166;2022-10-15T07:03:12;14.80;99.90
49327;DHT22;35819;44.498;0.166;2022-10-15T07:05:37;14.90;99.90
49327;DHT22;35819;44.498;0.166;2022-10-15T07:08:03;14.90;99.90
49327;DHT22;35819;44.498;0.166;2022-10-15T07:10:29;14.90;99.90
49327;DHT22;35819;44.498;0.166;2022-10-15T07:12:57;15.00;99.90
49327;DHT22;35819;44.498;0.166;2022-10-15T07:15:23;15.00;99.90
49327;DHT22;35819;44.498;0.166;2022-10-15T07:17:51;15.10;99.90
49327;DHT22;35819;44.498;0.166;2022-10-15T07:20:18;15.10;99.90
49327;DHT22;35819;44.498;0.166;2022-10-15T07:22:44;15.20;99.90
49327;DHT22;35819;44.498;0.166;2022-10-15T07:25:10;15.30;99.90
49327;DHT22;35819;44.498;0.166;2022-10-15T07:27:37;15.40;99.90
49327;DHT22;35819;44.498;0.166;2022-10-15T07:30:03;15.60;99.90
49327;DHT22;35819;44.498;0.166;2022-10-15T07:32:29;15.70;99.90
49327;DHT22;35819;44.498;0.166;2022-10-15T07:34:55;15.90;99.90
49327;DHT22;35819;44.498;0.166;2022-10-15T07:37:21;16.10;99.90
49327;DHT22;35819;44.498;0.166;2022-10-15T07:39:47;16.30;99.90
49327;DHT22;35819;44.498;0.166;2022-10-15T07:42:13;16.50;99.90
49327;DHT22;35819;44.498;0.166;2022-10-15T07:44:39;16.60;99.90
49327;DHT22;35819;44.498;0.166;2022-10-15T07:47:06;16.80;99.90
49327;DHT22;35819;44.498;0.166;2022-10-15T07:49:31;16.90;99.90
49327;DHT22;35819;44.498;0.166;2022-10-15T07:51:58;17.00;99.90
49327;DHT22;35819;44.498;0.166;2022-10-15T07:54:24;17.00;99.90
49327;DHT22;35819;44.498;0.166;2022-10-15T07:56:50;17.10;99.90
49327;DHT22;35819;44.498;0.166;2022-10-15T07:59:16;17.00;99.90
49327;DHT22;35819;44.498;0.166;2022-10-15T08:01:41;17.00;99.90
49327;DHT22;35819;44.498;0.166;2022-10-15T08:04:08;17.00;99.90
49327;DHT22;35819;44.498;0.166;2022-10-15T08:06:36;16.90;99.90
49327;DHT22;35819;44.498;0.166;2022-10-15T08:09:04;16.90;99.90
49327;DHT22;35819;44.498;0.166;2022-10-15T08:11:30;17.00;99.90
49327;DHT22;35819;44.498;0.166;2022-10-15T08:13:56;17.10;99.90
49327;DHT22;35819;44.498;0.166;2022-10-15T08:16:22;17.30;99.90
49327;DHT22;35819;44.498;0.166;2022-10-15T08:19:14;17.50;99.90
49327;DHT22;35819;44.498;0.166;2022-10-15T08:21:44;17.60;99.90
49327;DHT22;35819;44.498;0.166;2022-10-15T08:24:14;17.80;99.90
49327;DHT22;35819;44.498;0.166;2022-10-15T08:26:40;17.80;99.90
49327;DHT22;35819;44.498;0.166;2022-10-15T08:29:05;17.90;99.90
49327;DHT22;35819;44.498;0.166;2022-10-15T08:31:31;18.10;99.90
49327;DHT22;35819;44.498;0.166;2022-10-15T08:34:01;18.20;99.90
49327;DHT22;35819;44.498;0.166;2022-10-15T08:36:27;18.20;99.90
49327;DHT22;35819;44.498;0.166;2022-10-15T08:38:53;18.30;99.90
49327;DHT22;35819;44.498;0.166;2022-10-15T08:41:25;19.00;99.90
49327;DHT22;35819;44.498;0.166;2022-10-15T08:43:53;20.30;99.90
49327;DHT22;35819;44.498;0.166;2022-10-15T08:46:24;21.70;99.90
49327;DHT22;35819;44.498;0.166;2022-10-15T08:48:56;22.50;99.90
49327;DHT22;35819;44.498;0.166;2022-10-15T08:51:26;22.50;99.90
49327;DHT22;35819;44.498;0.166;2022-10-15T08:53:58;23.20;99.90
49327;DHT22;35819;44.498;0.166;2022-10-15T08:56:38;23.80;98.80
49327;DHT22;35819;44.498;0.166;2022-10-15T09:01:42;22.60;99.30
49327;DHT22;35819;44.498;0.166;2022-10-15T09:04:23;22.10;99.70
49327;DHT22;35819;44.498;0.166;2022-10-15T09:07:00;21.60;99.90
49327;DHT22;35819;44.498;0.166;2022-10-15T09:09:40;21.40;99.90
49327;DHT22;35819;44.498;0.166;2022-10-15T09:15:01;23.90;98.00
49327;DHT22;35819;44.498;0.166;2022-10-15T09:17:31;25.40;96.00
49327;DHT22;35819;44.498;0.166;2022-10-15T09:19:57;26.40;93.90
49327;DHT22;35819;44.498;0.166;2022-10-15T09:22:31;27.40;92.00
49327;DHT22;35819;44.498;0.166;2022-10-15T09:24:58;28.50;90.10
49327;DHT22;35819;44.498;0.166;2022-10-15T09:27:32;29.30;86.60
49327;DHT22;35819;44.498;0.166;2022-10-15T09:35:30;29.80;79.00
49327;DHT22;35819;44.498;0.166;2022-10-15T09:43:28;29.30;75.90
49327;DHT22;35819;44.498;0.166;2022-10-15T09:45:58;28.90;77.00
49327;DHT22;35819;44.498;0.166;2022-10-15T09:48:24;29.60;76.00
49327;DHT22;35819;44.498;0.166;2022-10-15T09:51:02;30.40;73.90
49327;DHT22;35819;44.498;0.166;2022-10-15T09:53:39;31.40;70.70
49327;DHT22;35819;44.498;0.166;2022-10-15T09:56:12;31.80;68.90
49327;DHT22;35819;44.498;0.166;2022-10-15T09:58:51;32.40;67.40
49327;DHT22;35819;44.498;0.166;2022-10-15T10:01:34;32.90;65.70
49327;DHT22;35819;44.498;0.166;2022-10-15T10:04:17;33.10;63.70
49327;DHT22;35819;44.498;0.166;2022-10-15T10:06:49;32.80;63.40
49327;DHT22;35819;44.498;0.166;2022-10-15T10:09:20;32.60;64.10
49327;DHT22;35819;44.498;0.166;2022-10-15T10:11:50;33.30;63.60
49327;DHT22;35819;44.498;0.166;2022-10-15T10:14:28;34.30;62.40
49327;DHT22;35819;44.498;0.166;2022-10-15T10:19:39;36.10;58.80
49327;DHT22;35819;44.498;0.166;2022-10-15T10:22:17;36.30;56.70
49327;DHT22;35819;44.498;0.166;2022-10-15T10:24:44;36.30;55.30
49327;DHT22;35819;44.498;0.166;2022-10-15T10:29:52;36.60;54.10
49327;DHT22;35819;44.498;0.166;2022-10-15T10:32:21;36.20;54.10
49327;DHT22;35819;44.498;0.166;2022-10-15T10:34:48;36.20;54.20
49327;DHT22;35819;44.498;0.166;2022-10-15T10:37:14;36.30;53.50
49327;DHT22;35819;44.498;0.166;2022-10-15T10:39:41;36.00;53.00
49327;DHT22;35819;44.498;0.166;2022-10-15T10:44:44;35.90;53.20
49327;DHT22;35819;44.498;0.166;2022-10-15T10:47:22;35.90;53.40
49327;DHT22;35819;44.498;0.166;2022-10-15T10:49:52;35.90;52.90
49327;DHT22;35819;44.498;0.166;2022-10-15T10:52:29;35.90;52.80
49327;DHT22;35819;44.498;0.166;2022-10-15T10:55:03;35.60;52.70
49327;DHT22;35819;44.498;0.166;2022-10-15T10:57:42;35.80;53.00
49327;DHT22;35819;44.498;0.166;2022-10-15T11:00:16;36.50;52.10
49327;DHT22;35819;44.498;0.166;2022-10-15T11:02:43;37.00;51.60
49327;DHT22;35819;44.498;0.166;2022-10-15T11:05:18;37.40;50.50
49327;DHT22;35819;44.498;0.166;2022-10-15T11:10:29;38.30;49.90
49327;DHT22;35819;44.498;0.166;2022-10-15T11:16:00;39.20;48.60
49327;DHT22;35819;44.498;0.166;2022-10-15T11:24:26;40.60;47.30
49327;DHT22;35819;44.498;0.166;2022-10-15T11:30:06;41.50;46.40
49327;DHT22;35819;44.498;0.166;2022-10-15T11:35:32;42.10;45.00
49327;DHT22;35819;44.498;0.166;2022-10-15T11:38:24;42.00;44.60
49327;DHT22;35819;44.498;0.166;2022-10-15T11:43:54;41.40;44.50
49327;DHT22;35819;44.498;0.166;2022-10-15T11:49:23;41.20;44.80
49327;DHT22;35819;44.498;0.166;2022-10-15T12:00:17;39.40;45.20
49327;DHT22;35819;44.498;0.166;2022-10-15T12:02:45;39.10;45.90
49327;DHT22;35819;44.498;0.166;2022-10-15T12:05:30;39.70;45.70
49327;DHT22;35819;44.498;0.166;2022-10-15T12:07:58;41.00;44.40
49327;DHT22;35819;44.498;0.166;2022-10-15T12:16:15;43.20;42.50
49327;DHT22;35819;44.498;0.166;2022-10-15T12:21:38;44.20;41.00
49327;DHT22;35819;44.498;0.166;2022-10-15T12:24:47;44.10;41.20
49327;DHT22;35819;44.498;0.166;2022-10-15T12:26:51;44.20;40.30
49327;DHT22;35819;44.498;0.166;2022-10-15T12:29:21;43.70;40.50
49327;DHT22;35819;44.498;0.166;2022-10-15T12:31:54;43.90;40.50
49327;DHT22;35819;44.498;0.166;2022-10-15T12:34:32;43.90;39.70
49327;DHT22;35819;44.498;0.166;2022-10-15T12:37:04;44.20;39.90
49327;DHT22;35819;44.498;0.166;2022-10-15T12:39:36;43.90;40.10
49327;DHT22;35819;44.498;0.166;2022-10-15T12:42:20;43.70;40.10
49327;DHT22;35819;44.498;0.166;2022-10-15T12:44:50;42.30;40.50
49327;DHT22;35819;44.498;0.166;2022-10-15T12:47:55;40.50;41.80
49327;DHT22;35819;44.498;0.166;2022-10-15T12:50:37;38.70;43.30
49327;DHT22;35819;44.498;0.166;2022-10-15T12:58:37;35.40;47.00
49327;DHT22;35819;44.498;0.166;2022-10-15T13:01:14;35.20;47.00
49327;DHT22;35819;44.498;0.166;2022-10-15T13:03:55;35.00;47.40
49327;DHT22;35819;44.498;0.166;2022-10-15T13:06:31;34.70;47.70
49327;DHT22;35819;44.498;0.166;2022-10-15T13:16:51;33.30;49.80
49327;DHT22;35819;44.498;0.166;2022-10-15T13:19:20;32.40;50.80
49327;DHT22;35819;44.498;0.166;2022-10-15T13:22:01;31.80;51.50
49327;DHT22;35819;44.498;0.166;2022-10-15T13:24:30;31.30;52.60
49327;DHT22;35819;44.498;0.166;2022-10-15T13:27:03;31.00;53.20
49327;DHT22;35819;44.498;0.166;2022-10-15T13:29:37;30.70;53.60
49327;DHT22;35819;44.498;0.166;2022-10-15T13:32:06;30.60;53.90
49327;DHT22;35819;44.498;0.166;2022-10-15T13:34:40;30.60;54.10
49327;DHT22;35819;44.498;0.166;2022-10-15T13:37:12;30.40;54.60
49327;DHT22;35819;44.498;0.166;2022-10-15T13:39:40;30.20;54.90
49327;DHT22;35819;44.498;0.166;2022-10-15T13:42:16;29.90;55.30
49327;DHT22;35819;44.498;0.166;2022-10-15T13:44:57;29.60;55.50
49327;DHT22;35819;44.498;0.166;2022-10-15T13:52:46;29.10;56.70
49327;DHT22;35819;44.498;0.166;2022-10-15T13:55:20;29.00;57.20
49327;DHT22;35819;44.498;0.166;2022-10-15T13:57:47;28.90;57.70
49327;DHT22;35819;44.498;0.166;2022-10-15T14:00:22;28.80;57.70
49327;DHT22;35819;44.498;0.166;2022-10-15T14:05:40;28.50;57.80
49327;DHT22;35819;44.498;0.166;2022-10-15T14:08:14;28.40;58.20
49327;DHT22;35819;44.498;0.166;2022-10-15T14:10:40;28.30;58.30
49327;DHT22;35819;44.498;0.166;2022-10-15T14:13:08;28.30;58.70
49327;DHT22;35819;44.498;0.166;2022-10-15T14:15:45;28.30;58.90
49327;DHT22;35819;44.498;0.166;2022-10-15T14:18:14;28.20;59.10
49327;DHT22;35819;44.498;0.166;2022-10-15T14:20:46;28.30;59.20
49327;DHT22;35819;44.498;0.166;2022-10-15T14:23:22;28.40;58.90
49327;DHT22;35819;44.498;0.166;2022-10-15T14:25:58;28.40;59.20
49327;DHT22;35819;44.498;0.166;2022-10-15T14:28:25;28.30;59.50
49327;DHT22;35819;44.498;0.166;2022-10-15T14:30:51;28.10;59.80
49327;DHT22;35819;44.498;0.166;2022-10-15T14:38:29;27.50;61.20
49327;DHT22;35819;44.498;0.166;2022-10-15T14:41:14;27.30;61.50
49327;DHT22;35819;44.498;0.166;2022-10-15T14:43:43;27.10;61.90
49327;DHT22;35819;44.498;0.166;2022-10-15T14:46:14;26.90;62.10
49327;DHT22;35819;44.498;0.166;2022-10-15T14:48:42;26.70;62.40
49327;DHT22;35819;44.498;0.166;2022-10-15T14:51:23;26.60;62.80
49327;DHT22;35819;44.498;0.166;2022-10-15T14:53:49;26.50;63.00
49327;DHT22;35819;44.498;0.166;2022-10-15T14:56:29;26.40;63.20
49327;DHT22;35819;44.498;0.166;2022-10-15T14:58:56;26.40;63.20
49327;DHT22;35819;44.498;0.166;2022-10-15T15:01:23;26.40;63.50
49327;DHT22;35819;44.498;0.166;2022-10-15T15:03:53;26.40;63.80
49327;DHT22;35819;44.498;0.166;2022-10-15T15:06:20;26.50;63.80
49327;DHT22;35819;44.498;0.166;2022-10-15T15:08:46;26.60;63.70
49327;DHT22;35819;44.498;0.166;2022-10-15T15:11:18;26.70;63.80
49327;DHT22;35819;44.498;0.166;2022-10-15T15:13:46;26.80;63.70
49327;DHT22;35819;44.498;0.166;2022-10-15T15:16:16;27.00;63.60
49327;DHT22;35819;44.498;0.166;2022-10-15T15:18:42;26.90;63.30
49327;DHT22;35819;44.498;0.166;2022-10-15T15:21:16;26.90;63.30
49327;DHT22;35819;44.498;0.166;2022-10-15T15:23:44;26.80;63.60
49327;DHT22;35819;44.498;0.166;2022-10-15T15:26:12;26.70;64.00
49327;DHT22;35819;44.498;0.166;2022-10-15T15:28:38;26.50;64.20
49327;DHT22;35819;44.498;0.166;2022-10-15T15:31:11;26.40;64.50
49327;DHT22;35819;44.498;0.166;2022-10-15T15:33:38;26.30;64.90
49327;DHT22;35819;44.498;0.166;2022-10-15T15:36:12;26.20;65.00
49327;DHT22;35819;44.498;0.166;2022-10-15T15:38:37;26.10;65.20
49327;DHT22;35819;44.498;0.166;2022-10-15T15:41:17;26.00;65.60
49327;DHT22;35819;44.498;0.166;2022-10-15T15:43:44;26.00;65.70
49327;DHT22;35819;44.498;0.166;2022-10-15T15:46:13;25.90;65.80
49327;DHT22;35819;44.498;0.166;2022-10-15T15:48:39;25.80;66.10
49327;DHT22;35819;44.498;0.166;2022-10-15T15:51:13;25.60;66.30
49327;DHT22;35819;44.498;0.166;2022-10-15T15:53:41;25.50;66.90
49327;DHT22;35819;44.498;0.166;2022-10-15T15:56:09;25.40;67.30
49327;DHT22;35819;44.498;0.166;2022-10-15T15:58:35;25.30;67.70
49327;DHT22;35819;44.498;0.166;2022-10-15T16:01:00;25.20;68.10
49327;DHT22;35819;44.498;0.166;2022-10-15T16:03:29;25.00;68.50
49327;DHT22;35819;44.498;0.166;2022-10-15T16:05:55;24.90;68.60
49327;DHT22;35819;44.498;0.166;2022-10-15T16:08:23;24.90;68.90
49327;DHT22;35819;44.498;0.166;2022-10-15T16:10:49;24.80;69.10
49327;DHT22;35819;44.498;0.166;2022-10-15T16:13:18;24.70;69.60
49327;DHT22;35819;44.498;0.166;2022-10-15T16:15:44;24.60;69.80
49327;DHT22;35819;44.498;0.166;2022-10-15T16:18:13;24.60;70.20
49327;DHT22;35819;44.498;0.166;2022-10-15T16:20:38;24.50;70.50
49327;DHT22;35819;44.498;0.166;2022-10-15T16:23:06;24.40;71.80
49327;DHT22;35819;44.498;0.166;2022-10-15T16:25:32;24.20;72.40
49327;DHT22;35819;44.498;0.166;2022-10-15T16:27:58;24.10;72.80
49327;DHT22;35819;44.498;0.166;2022-10-15T16:30:26;24.00;73.10
49327;DHT22;35819;44.498;0.166;2022-10-15T16:32:52;24.00;73.60
49327;DHT22;35819;44.498;0.166;2022-10-15T16:35:21;23.80;73.90
49327;DHT22;35819;44.498;0.166;2022-10-15T16:37:47;23.80;74.40
49327;DHT22;35819;44.498;0.166;2022-10-15T16:40:13;23.70;75.40
49327;DHT22;35819;44.498;0.166;2022-10-15T16:42:40;23.60;75.60
49327;DHT22;35819;44.498;0.166;2022-10-15T16:45:06;23.50;75.60
49327;DHT22;35819;44.498;0.166;2022-10-15T16:47:32;23.40;75.90
49327;DHT22;35819;44.498;0.166;2022-10-15T16:50:07;23.40;76.70
49327;DHT22;35819;44.498;0.166;2022-10-15T16:52:36;23.30;77.50
49327;DHT22;35819;44.498;0.166;2022-10-15T16:55:05;23.20;77.60
49327;DHT22;35819;44.498;0.166;2022-10-15T16:57:31;23.10;77.80
49327;DHT22;35819;44.498;0.166;2022-10-15T16:59:57;23.00;78.10
49327;DHT22;35819;44.498;0.166;2022-10-15T17:02:23;23.00;78.60
49327;DHT22;35819;44.498;0.166;2022-10-15T17:04:49;22.90;80.00
49327;DHT22;35819;44.498;0.166;2022-10-15T17:07:14;22.80;80.50
49327;DHT22;35819;44.498;0.166;2022-10-15T17:09:40;22.60;81.00
49327;DHT22;35819;44.498;0.166;2022-10-15T17:12:06;22.60;81.80
49327;DHT22;35819;44.498;0.166;2022-10-15T17:14:32;22.50;81.60
49327;DHT22;35819;44.498;0.166;2022-10-15T17:16:58;22.50;82.40
49327;DHT22;35819;44.498;0.166;2022-10-15T17:19:24;22.40;83.00
49327;DHT22;35819;44.498;0.166;2022-10-15T17:21:51;22.30;83.40
49327;DHT22;35819;44.498;0.166;2022-10-15T17:24:18;22.20;84.00
49327;DHT22;35819;44.498;0.166;2022-10-15T17:26:45;22.10;85.00
49327;DHT22;35819;44.498;0.166;2022-10-15T17:29:18;22.00;85.40
49327;DHT22;35819;44.498;0.166;2022-10-15T17:31:49;22.00;86.10
49327;DHT22;35819;44.498;0.166;2022-10-15T17:34:15;21.90;86.70
49327;DHT22;35819;44.498;0.166;2022-10-15T17:36:45;21.80;87.30
49327;DHT22;35819;44.498;0.166;2022-10-15T17:39:15;21.70;88.20